Time,TemperatureF,DewpointF,PressureIn,WindDirection,WindDirectionDegrees,WindSpeedMPH,WindSpeedGustMPH,Humidity,HourlyPrecipIn,Conditions,Clouds,dailyrainin,SoftwareType,DateUTC
2013-05-31 04:35:00,59.2,50.5,29.82,North,-999,0.0,0.0,73,0.00,,,-99.99,FreeWX 2.04,2013-05-31 08:35:00,
2013-05-31 08:21:00,65.5,58.8,29.79,North,-999,0.0,0.0,79,0.00,,,-99.99,FreeWX 2.04,2013-05-31 12:21:00,
2013-05-31 08:25:00,65.7,58.6,29.79,North,-999,0.0,0.0,78,0.00,,,-99.99,FreeWX 2.04,2013-05-31 12:25:00,
2013-05-31 08:30:00,65.5,57.7,29.79,North,-999,0.0,3.6,76,0.00,,,-99.99,FreeWX 2.04,2013-05-31 12:30:00,
2013-05-31 08:35:00,65.8,58.1,29.79,North,-999,0.0,0.0,76,0.00,,,-99.99,FreeWX 2.04,2013-05-31 12:35:00,
2013-05-31 08:40:00,66.9,59.5,29.79,North,-999,0.0,4.0,77,0.00,,,-99.99,FreeWX 2.04,2013-05-31 12:40:00,
2013-05-31 08:45:00,68.4,61.2,29.79,North,-999,0.0,4.0,78,0.00,,,-99.99,FreeWX 2.04,2013-05-31 12:45:00,
2013-05-31 08:50:00,70.3,63.9,29.79,North,-999,0.0,3.6,80,0.00,,,-99.99,FreeWX 2.04,2013-05-31 12:50:00,
2013-05-31 08:55:00,72.7,66.2,29.79,North,-999,0.0,4.9,80,0.00,,,-99.99,FreeWX 2.04,2013-05-31 12:55:00,
2013-05-31 09:00:00,74.1,67.1,29.79,North,-999,0.0,5.4,79,0.00,,,-99.99,FreeWX 2.04,2013-05-31 13:00:00,
2013-05-31 09:05:00,75.2,65.1,29.79,WSW,243,1.0,5.8,71,0.00,,,-99.99,FreeWX 2.04,2013-05-31 13:05:00,
2013-05-31 09:10:00,77.5,67.8,29.79,WSW,257,1.0,3.1,72,0.00,,,-99.99,FreeWX 2.04,2013-05-31 13:10:00,
2013-05-31 09:15:00,79.7,68.5,29.79,North,-999,0.0,5.4,69,0.00,,,-99.99,FreeWX 2.04,2013-05-31 13:15:00,
2013-05-31 09:20:00,80.4,65.3,29.79,North,-999,0.0,3.6,60,0.00,,,-99.99,FreeWX 2.04,2013-05-31 13:20:00,
2013-05-31 09:25:00,81.7,63.3,29.79,North,-999,0.0,4.5,54,0.00,,,-99.99,FreeWX 2.04,2013-05-31 13:25:00,
2013-05-31 09:30:00,82.8,58.6,29.79,North,-999,0.0,4.9,44,0.00,,,-99.99,FreeWX 2.04,2013-05-31 13:30:00,
2013-05-31 09:35:00,83.5,53.6,29.79,SW,232,1.0,4.5,36,0.00,,,-99.99,FreeWX 2.04,2013-05-31 13:35:00,
2013-05-31 09:40:00,83.5,47.8,29.79,WSW,254,2.0,5.4,29,0.00,,,-99.99,FreeWX 2.04,2013-05-31 13:40:00,
2013-05-31 09:45:00,85.3,50.4,29.79,SW,235,2.0,5.8,30,0.00,,,-99.99,FreeWX 2.04,2013-05-31 13:45:00,
2013-05-31 09:50:00,85.1,48.4,29.76,SW,216,2.0,5.4,28,0.00,,,-99.99,FreeWX 2.04,2013-05-31 13:50:00,
2013-05-31 09:55:00,84.6,48.7,29.76,SSW,212,2.0,5.8,29,0.00,,,-99.99,FreeWX 2.04,2013-05-31 13:55:00,
2013-05-31 10:00:00,83.3,47.7,29.76,SW,233,2.0,6.7,29,0.00,,,-99.99,FreeWX 2.04,2013-05-31 14:00:00,
2013-05-31 10:05:00,82.2,46.8,29.79,WSW,250,2.0,5.4,29,0.00,,,-99.99,FreeWX 2.04,2013-05-31 14:05:00,
2013-05-31 10:10:00,81.3,46.9,29.79,WSW,240,2.0,5.4,30,0.00,,,-99.99,FreeWX 2.04,2013-05-31 14:10:00,
2013-05-31 10:15:00,81.7,48.0,29.79,SW,235,3.0,5.4,31,0.00,,,-99.99,FreeWX 2.04,2013-05-31 14:15:00,
2013-05-31 10:20:00,81.5,47.1,29.79,SW,234,2.0,4.5,30,0.00,,,-99.99,FreeWX 2.04,2013-05-31 14:20:00,
2013-05-31 10:25:00,81.7,48.9,29.79,WSW,240,1.0,6.7,32,0.00,,,-99.99,FreeWX 2.04,2013-05-31 14:25:00,
2013-05-31 10:30:00,82.0,48.4,29.79,SW,226,2.0,5.4,31,0.00,,,-99.99,FreeWX 2.04,2013-05-31 14:30:00,
2013-05-31 10:35:00,81.3,47.8,29.76,WSW,241,2.0,7.8,31,0.00,,,-99.99,FreeWX 2.04,2013-05-31 14:35:00,
2013-05-31 10:40:00,81.3,47.8,29.76,WSW,252,2.0,4.9,31,0.00,,,-99.99,FreeWX 2.04,2013-05-31 14:40:00,
2013-05-31 10:45:00,82.9,50.0,29.76,WSW,238,1.0,4.9,32,0.00,,,-99.99,FreeWX 2.04,2013-05-31 14:45:00,
2013-05-31 10:50:00,84.4,49.5,29.76,WSW,248,1.0,4.5,30,0.00,,,-99.99,FreeWX 2.04,2013-05-31 14:50:00,
2013-05-31 10:55:00,86.2,48.2,29.76,WSW,256,2.0,6.7,27,0.00,,,-99.99,FreeWX 2.04,2013-05-31 14:55:00,
2013-05-31 11:00:00,85.1,46.4,29.76,West,260,2.0,5.4,26,0.00,,,-99.99,FreeWX 2.04,2013-05-31 15:00:00,
2013-05-31 11:05:00,82.9,46.4,29.76,WSW,249,2.0,6.9,28,0.00,,,-99.99,FreeWX 2.04,2013-05-31 15:05:00,
2013-05-31 11:10:00,81.0,46.6,29.76,WSW,246,3.0,6.7,30,0.00,,,-99.99,FreeWX 2.04,2013-05-31 15:10:00,
2013-05-31 11:15:00,80.8,47.3,29.76,WSW,253,3.0,8.3,31,0.00,,,-99.99,FreeWX 2.04,2013-05-31 15:15:00,
2013-05-31 11:20:00,81.1,48.4,29.76,WSW,238,2.0,6.3,32,0.00,,,-99.99,FreeWX 2.04,2013-05-31 15:20:00,
2013-05-31 11:25:00,81.7,47.1,29.76,SW,235,2.0,6.3,30,0.00,,,-99.99,FreeWX 2.04,2013-05-31 15:25:00,
2013-05-31 11:30:00,81.7,47.1,29.76,WSW,243,2.0,6.3,30,0.00,,,-99.99,FreeWX 2.04,2013-05-31 15:30:00,
2013-05-31 11:35:00,81.0,46.6,29.76,WSW,251,2.0,7.8,30,0.00,,,-99.99,FreeWX 2.04,2013-05-31 15:35:00,
2013-05-31 11:40:00,80.6,47.1,29.76,West,266,3.0,6.9,31,0.00,,,-99.99,FreeWX 2.04,2013-05-31 15:40:00,
2013-05-31 11:45:00,80.4,46.9,29.76,West,263,2.0,6.3,31,0.00,,,-99.99,FreeWX 2.04,2013-05-31 15:45:00,
2013-05-31 11:50:00,80.8,47.3,29.76,WSW,240,2.0,6.9,31,0.00,,,-99.99,FreeWX 2.04,2013-05-31 15:50:00,
2013-05-31 11:55:00,81.1,47.7,29.76,SW,233,2.0,5.4,31,0.00,,,-99.99,FreeWX 2.04,2013-05-31 15:55:00,
2013-05-31 12:00:00,81.7,48.0,29.76,WSW,251,2.0,5.4,31,0.00,,,-99.99,FreeWX 2.04,2013-05-31 16:00:00,
2013-05-31 12:05:00,81.0,46.6,29.76,West,266,3.0,6.9,30,0.00,,,-99.99,FreeWX 2.04,2013-05-31 16:05:00,
2013-05-31 12:10:00,80.6,47.1,29.76,WSW,250,3.0,6.3,31,0.00,,,-99.99,FreeWX 2.04,2013-05-31 16:10:00,
2013-05-31 12:15:00,80.4,46.9,29.76,WSW,246,2.0,4.5,31,0.00,,,-99.99,FreeWX 2.04,2013-05-31 16:15:00,
2013-05-31 12:20:00,80.4,46.9,29.76,WSW,248,2.0,6.3,31,0.00,,,-99.99,FreeWX 2.04,2013-05-31 16:20:00,
2013-05-31 12:25:00,80.6,46.2,29.76,WSW,244,3.0,6.3,30,0.00,,,-99.99,FreeWX 2.04,2013-05-31 16:25:00,
2013-05-31 12:30:00,80.1,46.8,29.76,WSW,250,3.0,6.7,31,0.00,,,-99.99,FreeWX 2.04,2013-05-31 16:30:00,
2013-05-31 12:35:00,79.7,46.4,29.76,WSW,250,3.0,5.8,31,0.00,,,-99.99,FreeWX 2.04,2013-05-31 16:35:00,
2013-05-31 12:40:00,78.8,45.5,29.76,WSW,251,2.0,5.4,31,0.00,,,-99.99,FreeWX 2.04,2013-05-31 16:40:00,
2013-05-31 12:45:00,78.1,45.9,29.76,WSW,246,1.0,4.9,32,0.00,,,-99.99,FreeWX 2.04,2013-05-31 16:45:00,
2013-05-31 12:50:00,77.5,46.2,29.76,North,-999,0.0,6.9,33,0.00,,,-99.99,FreeWX 2.04,2013-05-31 16:50:00,
2013-05-31 12:55:00,77.4,46.8,29.76,North,-999,0.0,0.0,34,0.00,,,-99.99,FreeWX 2.04,2013-05-31 16:55:00,
2013-05-31 13:00:00,77.5,48.4,29.76,North,-999,0.0,4.0,36,0.00,,,-99.99,FreeWX 2.04,2013-05-31 17:00:00,
2013-05-31 13:05:00,78.1,49.6,29.79,North,-999,0.0,4.0,37,0.00,,,-99.99,FreeWX 2.04,2013-05-31 17:05:00,
2013-05-31 13:10:00,79.3,50.0,29.79,West,261,1.0,4.9,36,0.00,,,-99.99,FreeWX 2.04,2013-05-31 17:10:00,
2013-05-31 13:15:00,81.3,50.2,29.79,WSW,242,2.0,5.4,34,0.00,,,-99.99,FreeWX 2.04,2013-05-31 17:15:00,
2013-05-31 13:20:00,84.7,50.7,29.76,WSW,247,1.0,6.3,31,0.00,,,-99.99,FreeWX 2.04,2013-05-31 17:20:00,
2013-05-31 13:25:00,86.9,43.5,29.76,West,259,2.0,6.7,22,0.00,,,-99.99,FreeWX 2.04,2013-05-31 17:25:00,
2013-05-31 13:30:00,87.3,41.2,29.76,WSW,246,2.0,5.4,20,0.00,,,-99.99,FreeWX 2.04,2013-05-31 17:30:00,
2013-05-31 13:35:00,86.5,41.9,29.76,WSW,245,2.0,6.3,21,0.00,,,-99.99,FreeWX 2.04,2013-05-31 17:35:00,
2013-05-31 13:40:00,87.1,41.2,29.76,WSW,256,3.0,6.3,20,0.00,,,-99.99,FreeWX 2.04,2013-05-31 17:40:00,
2013-05-31 13:45:00,87.6,40.3,29.76,WSW,257,3.0,6.7,19,0.00,,,-99.99,FreeWX 2.04,2013-05-31 17:45:00,
2013-05-31 13:50:00,87.1,39.7,29.76,WSW,257,2.0,4.9,19,0.00,,,-99.99,FreeWX 2.04,2013-05-31 17:50:00,
2013-05-31 13:55:00,87.1,39.7,29.76,SW,224,1.0,4.0,19,0.00,,,-99.99,FreeWX 2.04,2013-05-31 17:55:00,
2013-05-31 14:00:00,86.7,42.1,29.76,SW,218,1.0,4.9,21,0.00,,,-99.99,FreeWX 2.04,2013-05-31 18:00:00,
2013-05-31 14:05:00,85.6,38.7,29.76,West,279,1.0,4.9,19,0.00,,,-99.99,FreeWX 2.04,2013-05-31 18:05:00,
2013-05-31 14:10:00,84.0,41.0,29.76,WSW,258,1.0,6.7,22,0.00,,,-99.99,FreeWX 2.04,2013-05-31 18:10:00,
2013-05-31 14:15:00,83.5,40.6,29.76,SW,229,1.0,5.8,22,0.00,,,-99.99,FreeWX 2.04,2013-05-31 18:15:00,
2013-05-31 14:20:00,82.4,40.8,29.74,WSW,251,1.0,7.8,23,0.00,,,-99.99,FreeWX 2.04,2013-05-31 18:20:00,
2013-05-31 14:25:00,82.9,41.4,29.74,WSW,247,2.0,5.4,23,0.00,,,-99.99,FreeWX 2.04,2013-05-31 18:25:00,
2013-05-31 14:30:00,84.0,43.3,29.74,SW,221,1.0,4.9,24,0.00,,,-99.99,FreeWX 2.04,2013-05-31 18:30:00,
2013-05-31 14:35:00,85.8,42.6,29.74,SW,232,1.0,4.0,22,0.00,,,-99.99,FreeWX 2.04,2013-05-31 18:35:00,
2013-05-31 14:40:00,87.1,42.4,29.74,SW,236,1.0,4.9,21,0.00,,,-99.99,FreeWX 2.04,2013-05-31 18:40:00,
2013-05-31 14:45:00,88.9,41.2,29.74,SW,216,2.0,5.4,19,0.00,,,-99.99,FreeWX 2.04,2013-05-31 18:45:00,
2013-05-31 14:50:00,88.5,39.6,29.74,SW,221,2.0,5.4,18,0.00,,,-99.99,FreeWX 2.04,2013-05-31 18:50:00,
2013-05-31 14:55:00,88.9,39.9,29.74,SW,225,2.0,5.4,18,0.00,,,-99.99,FreeWX 2.04,2013-05-31 18:55:00,
2013-05-31 15:00:00,89.8,40.6,29.74,SW,218,1.0,3.1,18,0.00,,,-99.99,FreeWX 2.04,2013-05-31 19:00:00,
2013-05-31 15:05:00,90.1,40.8,29.74,North,-999,0.0,4.5,18,0.00,,,-99.99,FreeWX 2.04,2013-05-31 19:05:00,
2013-05-31 15:10:00,89.6,40.5,29.74,SW,221,1.0,4.0,18,0.00,,,-99.99,FreeWX 2.04,2013-05-31 19:10:00,
2013-05-31 15:15:00,90.0,40.8,29.74,North,-999,0.0,4.5,18,0.00,,,-99.99,FreeWX 2.04,2013-05-31 19:15:00,
2013-05-31 15:20:00,91.0,40.1,29.74,SW,226,1.0,4.9,17,0.00,,,-99.99,FreeWX 2.04,2013-05-31 19:20:00,
2013-05-31 15:25:00,90.1,39.4,29.74,SW,224,2.0,5.4,17,0.00,,,-99.99,FreeWX 2.04,2013-05-31 19:25:00,
2013-05-31 15:30:00,89.1,38.5,29.74,SW,221,1.0,4.0,17,0.00,,,-99.99,FreeWX 2.04,2013-05-31 19:30:00,
2013-05-31 15:35:00,88.9,38.5,29.74,SW,221,2.0,4.9,17,0.00,,,-99.99,FreeWX 2.04,2013-05-31 19:35:00,
2013-05-31 15:40:00,90.1,39.4,29.74,SW,226,1.0,4.5,17,0.00,,,-99.99,FreeWX 2.04,2013-05-31 19:40:00,
2013-05-31 15:45:00,87.1,33.8,29.74,SSE,165,1.0,4.9,15,0.00,,,-99.99,FreeWX 2.04,2013-05-31 19:45:00,
2013-05-31 15:50:00,83.1,36.5,29.74,SE,126,2.0,5.8,19,0.00,,,-99.99,FreeWX 2.04,2013-05-31 19:50:00,
2013-05-31 15:55:00,81.5,36.5,29.74,ESE,103,2.0,4.0,20,0.00,,,-99.99,FreeWX 2.04,2013-05-31 19:55:00,
2013-05-31 16:00:00,81.1,38.7,29.74,ESE,113,2.0,4.9,22,0.00,,,-99.99,FreeWX 2.04,2013-05-31 20:00:00,
2013-05-31 16:05:00,81.0,38.5,29.74,SE,126,1.0,3.6,22,0.00,,,-99.99,FreeWX 2.04,2013-05-31 20:05:00,
2013-05-31 16:10:00,80.8,39.6,29.74,North,-999,0.0,4.5,23,0.00,,,-99.99,FreeWX 2.04,2013-05-31 20:10:00,
2013-05-31 16:15:00,80.2,37.9,29.74,SE,128,2.0,4.5,22,0.00,,,-99.99,FreeWX 2.04,2013-05-31 20:15:00,
2013-05-31 16:20:00,80.4,38.1,29.74,SE,133,2.0,4.0,22,0.00,,,-99.99,FreeWX 2.04,2013-05-31 20:20:00,
2013-05-31 16:25:00,80.8,38.3,29.74,SE,139,1.0,4.9,22,0.00,,,-99.99,FreeWX 2.04,2013-05-31 20:25:00,
2013-05-31 16:30:00,81.1,40.8,29.74,SE,146,1.0,4.0,24,0.00,,,-99.99,FreeWX 2.04,2013-05-31 20:30:00,
2013-05-31 16:35:00,81.3,41.0,29.74,SSE,150,1.0,3.6,24,0.00,,,-99.99,FreeWX 2.04,2013-05-31 20:35:00,
2013-05-31 16:40:00,81.0,39.7,29.74,North,-999,0.0,4.0,23,0.00,,,-99.99,FreeWX 2.04,2013-05-31 20:40:00,
2013-05-31 16:45:00,80.1,38.8,29.74,North,-999,0.0,4.0,23,0.00,,,-99.99,FreeWX 2.04,2013-05-31 20:45:00,
2013-05-31 16:50:00,78.8,39.0,29.74,SE,135,1.0,4.5,24,0.00,,,-99.99,FreeWX 2.04,2013-05-31 20:50:00,
2013-05-31 16:55:00,78.3,40.5,29.74,SE,134,1.0,0.0,26,0.00,,,-99.99,FreeWX 2.04,2013-05-31 20:55:00,
2013-05-31 17:00:00,78.6,41.9,29.74,North,-999,0.0,4.5,27,0.00,,,-99.99,FreeWX 2.04,2013-05-31 21:00:00,
2013-05-31 17:05:00,79.3,44.2,29.71,ESE,121,1.0,5.4,29,0.00,,,-99.99,FreeWX 2.04,2013-05-31 21:05:00,
2013-05-31 17:10:00,81.9,46.4,29.71,SSE,150,1.0,6.3,29,0.00,,,-99.99,FreeWX 2.04,2013-05-31 21:10:00,
2013-05-31 17:15:00,84.9,48.2,29.71,SSE,167,1.0,4.0,28,0.00,,,-99.99,FreeWX 2.04,2013-05-31 21:15:00,
2013-05-31 17:20:00,86.5,44.2,29.71,North,-999,0.0,4.0,23,0.00,,,-99.99,FreeWX 2.04,2013-05-31 21:20:00,
2013-05-31 17:25:00,89.2,42.8,29.71,North,-999,0.0,4.5,20,0.00,,,-99.99,FreeWX 2.04,2013-05-31 21:25:00,
2013-05-31 17:30:00,87.4,38.7,29.71,SSE,156,2.0,5.4,18,0.00,,,-99.99,FreeWX 2.04,2013-05-31 21:30:00,
2013-05-31 17:35:00,84.6,37.8,29.74,SSE,162,2.0,4.0,19,0.00,,,-99.99,FreeWX 2.04,2013-05-31 21:35:00,
2013-05-31 17:40:00,82.4,37.2,29.74,SSE,154,2.0,4.9,20,0.00,,,-99.99,FreeWX 2.04,2013-05-31 21:40:00,
2013-05-31 17:45:00,80.8,38.3,29.74,SSE,150,1.0,4.0,22,0.00,,,-99.99,FreeWX 2.04,2013-05-31 21:45:00,
2013-05-31 17:50:00,78.8,37.9,29.74,SSE,150,1.0,5.8,23,0.00,,,-99.99,FreeWX 2.04,2013-05-31 21:50:00,
2013-05-31 17:55:00,77.7,40.1,29.74,SE,146,2.0,4.0,26,0.00,,,-99.99,FreeWX 2.04,2013-05-31 21:55:00,
2013-05-31 18:00:00,77.2,41.5,29.74,SSE,148,2.0,4.5,28,0.00,,,-99.99,FreeWX 2.04,2013-05-31 22:00:00,
2013-05-31 18:05:00,76.6,41.9,29.71,SSE,153,1.0,4.0,29,0.00,,,-99.99,FreeWX 2.04,2013-05-31 22:05:00,
2013-05-31 18:10:00,76.8,43.0,29.71,North,-999,0.0,3.6,30,0.00,,,-99.99,FreeWX 2.04,2013-05-31 22:10:00,
2013-05-31 18:15:00,77.4,42.6,29.71,North,-999,0.0,3.6,29,0.00,,,-99.99,FreeWX 2.04,2013-05-31 22:15:00,
2013-05-31 18:20:00,77.2,42.4,29.74,North,-999,0.0,4.0,29,0.00,,,-99.99,FreeWX 2.04,2013-05-31 22:20:00,
2013-05-31 18:25:00,75.9,41.4,29.74,North,-999,0.0,4.5,29,0.00,,,-99.99,FreeWX 2.04,2013-05-31 22:25:00,
2013-05-31 18:30:00,75.2,42.4,29.74,North,-999,0.0,4.0,31,0.00,,,-99.99,FreeWX 2.04,2013-05-31 22:30:00,
2013-05-31 18:35:00,74.8,42.1,29.74,North,-999,0.0,4.5,31,0.00,,,-99.99,FreeWX 2.04,2013-05-31 22:35:00,
2013-05-31 18:40:00,74.3,42.4,29.74,SE,146,1.0,4.5,32,0.00,,,-99.99,FreeWX 2.04,2013-05-31 22:40:00,
2013-05-31 18:45:00,73.8,42.1,29.74,SE,135,1.0,5.4,32,0.00,,,-99.99,FreeWX 2.04,2013-05-31 22:45:00,
2013-05-31 18:50:00,73.2,42.4,29.74,North,-999,0.0,3.6,33,0.00,,,-99.99,FreeWX 2.04,2013-05-31 22:50:00,
2013-05-31 18:55:00,73.4,42.6,29.74,North,-999,0.0,4.5,33,0.00,,,-99.99,FreeWX 2.04,2013-05-31 22:55:00,
2013-05-31 19:00:00,73.4,42.6,29.74,North,-999,0.0,0.0,33,0.00,,,-99.99,FreeWX 2.04,2013-05-31 23:00:00,
2013-05-31 19:05:00,74.1,43.9,29.74,North,-999,0.0,3.6,34,0.00,,,-99.99,FreeWX 2.04,2013-05-31 23:05:00,
2013-05-31 19:10:00,75.9,46.2,29.74,North,-999,0.0,3.6,35,0.00,,,-99.99,FreeWX 2.04,2013-05-31 23:10:00,
2013-05-31 19:15:00,77.0,45.7,29.74,North,-999,0.0,4.0,33,0.00,,,-99.99,FreeWX 2.04,2013-05-31 23:15:00,
2013-05-31 19:20:00,76.6,44.6,29.74,North,-999,0.0,0.0,32,0.00,,,-99.99,FreeWX 2.04,2013-05-31 23:20:00,
2013-05-31 19:25:00,76.3,44.2,29.74,North,-999,0.0,0.0,32,0.00,,,-99.99,FreeWX 2.04,2013-05-31 23:25:00,
2013-05-31 19:30:00,75.9,44.8,29.74,SSE,153,1.0,4.9,33,0.00,,,-99.99,FreeWX 2.04,2013-05-31 23:30:00,
2013-05-31 19:35:00,75.9,44.8,29.74,SSW,211,1.0,3.6,33,0.00,,,-99.99,FreeWX 2.04,2013-05-31 23:35:00,
2013-05-31 19:40:00,75.7,44.6,29.74,North,-999,0.0,4.0,33,0.00,,,-99.99,FreeWX 2.04,2013-05-31 23:40:00,
2013-05-31 19:45:00,75.2,45.0,29.74,North,-999,0.0,3.1,34,0.00,,,-99.99,FreeWX 2.04,2013-05-31 23:45:00,
2013-05-31 19:50:00,75.2,45.0,29.74,North,-999,0.0,4.0,34,0.00,,,-99.99,FreeWX 2.04,2013-05-31 23:50:00,
2013-05-31 19:55:00,75.4,45.9,29.74,North,-999,0.0,4.5,35,0.00,,,-99.99,FreeWX 2.04,2013-05-31 23:55:00,
2013-05-31 20:00:00,75.2,45.7,29.74,North,-999,0.0,4.0,35,0.00,,,-99.99,FreeWX 2.04,2013-06-01 00:00:00,
2013-05-31 20:06:00,75.0,45.5,29.74,North,-999,0.0,3.1,35,0.00,,,-99.99,FreeWX 2.04,2013-06-01 00:06:00,
2013-05-31 20:11:00,75.0,45.5,29.74,North,-999,0.0,5.4,35,0.00,,,-99.99,FreeWX 2.04,2013-06-01 00:11:00,
2013-05-31 20:16:00,75.0,45.5,29.74,North,-999,0.0,4.5,35,0.00,,,-99.99,FreeWX 2.04,2013-06-01 00:16:00,
2013-05-31 20:21:00,74.8,45.3,29.74,North,-999,0.0,0.0,35,0.00,,,-99.99,FreeWX 2.04,2013-06-01 00:21:00,
2013-05-31 20:26:00,74.7,44.4,29.74,North,-999,0.0,4.5,34,0.00,,,-99.99,FreeWX 2.04,2013-06-01 00:26:00,
2013-05-31 20:31:00,74.5,44.2,29.74,SW,235,1.0,3.1,34,0.00,,,-99.99,FreeWX 2.04,2013-06-01 00:31:00,
2013-05-31 20:36:00,74.1,44.8,29.74,North,-999,0.0,4.0,35,0.00,,,-99.99,FreeWX 2.04,2013-06-01 00:36:00,
2013-05-31 20:41:00,73.6,44.2,29.74,North,-999,0.0,3.1,35,0.00,,,-99.99,FreeWX 2.04,2013-06-01 00:41:00,
2013-05-31 20:46:00,73.4,44.8,29.74,North,-999,0.0,4.0,36,0.00,,,-99.99,FreeWX 2.04,2013-06-01 00:46:00,
2013-05-31 20:51:00,73.2,44.6,29.74,North,-999,0.0,4.0,36,0.00,,,-99.99,FreeWX 2.04,2013-06-01 00:51:00,
2013-05-31 20:56:00,72.9,44.4,29.74,North,-999,0.0,4.9,36,0.00,,,-99.99,FreeWX 2.04,2013-06-01 00:56:00,
2013-05-31 21:01:00,72.7,45.0,29.74,North,-999,0.0,3.6,37,0.00,,,-99.99,FreeWX 2.04,2013-06-01 01:01:00,
2013-05-31 21:06:00,72.5,45.5,29.74,North,-999,0.0,3.6,38,0.00,,,-99.99,FreeWX 2.04,2013-06-01 01:06:00,
2013-05-31 21:11:00,72.1,45.1,29.74,North,-999,0.0,3.6,38,0.00,,,-99.99,FreeWX 2.04,2013-06-01 01:11:00,
2013-05-31 21:16:00,72.0,45.7,29.74,North,-999,0.0,0.0,39,0.00,,,-99.99,FreeWX 2.04,2013-06-01 01:16:00,
2013-05-31 21:21:00,71.8,45.5,29.74,North,-999,0.0,0.0,39,0.00,,,-99.99,FreeWX 2.04,2013-06-01 01:21:00,
2013-05-31 21:26:00,71.4,45.9,29.74,North,-999,0.0,0.0,40,0.00,,,-99.99,FreeWX 2.04,2013-06-01 01:26:00,
2013-05-31 21:31:00,71.2,46.4,29.74,North,-999,0.0,3.6,41,0.00,,,-99.99,FreeWX 2.04,2013-06-01 01:31:00,
2013-05-31 21:36:00,71.1,46.2,29.74,North,-999,0.0,0.0,41,0.00,,,-99.99,FreeWX 2.04,2013-06-01 01:36:00,
2013-05-31 21:41:00,70.9,46.6,29.74,North,-999,0.0,0.0,42,0.00,,,-99.99,FreeWX 2.04,2013-06-01 01:41:00,
2013-05-31 21:46:00,70.7,46.4,29.74,North,-999,0.0,0.0,42,0.00,,,-99.99,FreeWX 2.04,2013-06-01 01:46:00,
2013-05-31 21:51:00,70.5,46.2,29.74,North,-999,0.0,0.0,42,0.00,,,-99.99,FreeWX 2.04,2013-06-01 01:51:00,
2013-05-31 21:56:00,70.3,46.8,29.74,North,-999,0.0,0.0,43,0.00,,,-99.99,FreeWX 2.04,2013-06-01 01:56:00,
2013-05-31 22:01:00,70.2,47.3,29.74,North,-999,0.0,0.0,44,0.00,,,-99.99,FreeWX 2.04,2013-06-01 02:01:00,
2013-05-31 22:06:00,70.0,47.1,29.71,North,-999,0.0,0.0,44,0.00,,,-99.99,FreeWX 2.04,2013-06-01 02:06:00,
2013-05-31 22:11:00,69.8,46.9,29.71,North,-999,0.0,0.0,44,0.00,,,-99.99,FreeWX 2.04,2013-06-01 02:11:00,
2013-05-31 22:16:00,69.6,46.8,29.71,North,-999,0.0,0.0,44,0.00,,,-99.99,FreeWX 2.04,2013-06-01 02:16:00,
2013-05-31 22:21:00,69.6,47.3,29.74,North,-999,0.0,3.1,45,0.00,,,-99.99,FreeWX 2.04,2013-06-01 02:21:00,